sensor_id;sensor_type;location;lat;lon;timestamp;P1;durP1;ratioP1;P2;durP2;ratioP2
7432;SDS011;32233;49.500;7.764;2022-08-01T00:00:15;2.77;;;2.53;;
7432;SDS011;32233;49.500;7.764;2022-08-01T00:02:42;2.23;;;2.03;;
7432;SDS011;32233;49.500;7.764;2022-08-01T00:05:08;2.60;;;2.40;;
7432;SDS011;32233;49.500;7.764;2022-08-01T00:07:35;3.17;;;2.80;;
7432;SDS011;32233;49.500;7.764;2022-08-01T00:10:06;2.63;;;2.47;;
7432;SDS011;32233;49.500;7.764;2022-08-01T00:12:32;2.93;;;2.63;;
7432;SDS011;32233;49.500;7.764;2022-08-01T00:14:59;2.77;;;2.30;;
7432;SDS011;32233;49.500;7.764;2022-08-01T00:17:25;2.60;;;2.40;;
7432;SDS011;32233;49.500;7.764;2022-08-01T00:19:52;3.10;;;2.90;;
7432;SDS011;32233;49.500;7.764;2022-08-01T00:22:18;2.53;;;2.33;;
7432;SDS011;32233;49.500;7.764;2022-08-01T00:24:45;2.60;;;2.50;;
7432;SDS011;32233;49.500;7.764;2022-08-01T00:27:11;2.70;;;2.50;;
7432;SDS011;32233;49.500;7.764;2022-08-01T00:29:38;3.20;;;2.40;;
7432;SDS011;32233;49.500;7.764;2022-08-01T00:32:24;2.53;;;2.33;;
7432;SDS011;32233;49.500;7.764;2022-08-01T00:34:51;3.57;;;2.40;;
7432;SDS011;32233;49.500;7.764;2022-08-01T00:37:17;2.63;;;2.43;;
7432;SDS011;32233;49.500;7.764;2022-08-01T00:39:44;2.57;;;2.30;;
7432;SDS011;32233;49.500;7.764;2022-08-01T00:42:11;2.70;;;2.53;;
7432;SDS011;32233;49.500;7.764;2022-08-01T00:44:38;4.07;;;2.67;;
7432;SDS011;32233;49.500;7.764;2022-08-01T00:47:04;3.00;;;2.70;;
7432;SDS011;32233;49.500;7.764;2022-08-01T00:49:31;2.50;;;2.40;;
7432;SDS011;32233;49.500;7.764;2022-08-01T00:51:58;2.63;;;2.43;;
7432;SDS011;32233;49.500;7.764;2022-08-01T00:54:25;2.70;;;2.50;;
7432;SDS011;32233;49.500;7.764;2022-08-01T00:56:52;3.00;;;2.70;;
7432;SDS011;32233;49.500;7.764;2022-08-01T00:59:18;2.73;;;2.47;;
7432;SDS011;32233;49.500;7.764;2022-08-01T01:01:46;3.03;;;2.60;;
7432;SDS011;32233;49.500;7.764;2022-08-01T01:04:15;3.20;;;2.40;;
7432;SDS011;32233;49.500;7.764;2022-08-01T01:06:52;2.43;;;2.27;;
7432;SDS011;32233;49.500;7.764;2022-08-01T01:17:32;3.27;;;2.90;;
7432;SDS011;32233;49.500;7.764;2022-08-01T01:20:16;3.67;;;3.00;;
7432;SDS011;32233;49.500;7.764;2022-08-01T01:28:12;2.33;;;2.23;;
7432;SDS011;32233;49.500;7.764;2022-08-01T01:30:41;2.30;;;2.20;;
7432;SDS011;32233;49.500;7.764;2022-08-01T01:33:09;3.03;;;2.83;;
7432;SDS011;32233;49.500;7.764;2022-08-01T01:35:38;2.70;;;2.37;;
7432;SDS011;32233;49.500;7.764;2022-08-01T01:38:09;2.10;;;1.83;;
7432;SDS011;32233;49.500;7.764;2022-08-01T01:40:37;2.03;;;1.93;;
7432;SDS011;32233;49.500;7.764;2022-08-01T01:43:04;2.70;;;2.03;;
7432;SDS011;32233;49.500;7.764;2022-08-01T01:45:32;2.50;;;2.30;;
7432;SDS011;32233;49.500;7.764;2022-08-01T01:47:59;2.50;;;2.30;;
7432;SDS011;32233;49.500;7.764;2022-08-01T01:50:27;2.67;;;2.47;;
7432;SDS011;32233;49.500;7.764;2022-08-01T01:52:53;2.83;;;2.63;;
7432;SDS011;32233;49.500;7.764;2022-08-01T01:55:21;2.60;;;2.40;;
7432;SDS011;32233;49.500;7.764;2022-08-01T01:57:48;2.87;;;2.67;;
7432;SDS011;32233;49.500;7.764;2022-08-01T02:00:16;4.20;;;2.80;;
7432;SDS011;32233;49.500;7.764;2022-08-01T02:02:42;3.17;;;2.30;;
7432;SDS011;32233;49.500;7.764;2022-08-01T02:05:10;2.83;;;2.50;;
7432;SDS011;32233;49.500;7.764;2022-08-01T02:07:37;2.87;;;2.67;;
7432;SDS011;32233;49.500;7.764;2022-08-01T02:10:05;2.40;;;2.20;;
7432;SDS011;32233;49.500;7.764;2022-08-01T02:12:32;2.97;;;2.77;;
7432;SDS011;32233;49.500;7.764;2022-08-01T02:15:00;3.17;;;2.87;;
7432;SDS011;32233;49.500;7.764;2022-08-01T02:17:27;2.83;;;2.63;;
7432;SDS011;32233;49.500;7.764;2022-08-01T02:19:54;2.83;;;2.60;;
7432;SDS011;32233;49.500;7.764;2022-08-01T02:22:25;3.10;;;2.90;;
7432;SDS011;32233;49.500;7.764;2022-08-01T02:24:55;2.83;;;2.43;;
7432;SDS011;32233;49.500;7.764;2022-08-01T02:27:27;3.20;;;2.97;;
7432;SDS011;32233;49.500;7.764;2022-08-01T02:30:07;2.97;;;2.77;;
7432;SDS011;32233;49.500;7.764;2022-08-01T02:32:36;3.73;;;2.40;;
7432;SDS011;32233;49.500;7.764;2022-08-01T02:35:03;2.77;;;2.50;;
7432;SDS011;32233;49.500;7.764;2022-08-01T02:37:34;2.50;;;2.30;;
7432;SDS011;32233;49.500;7.764;2022-08-01T02:40:07;2.80;;;2.60;;
7432;SDS011;32233;49.500;7.764;2022-08-01T02:42:39;3.37;;;2.77;;
7432;SDS011;32233;49.500;7.764;2022-08-01T02:45:07;2.67;;;2.30;;
7432;SDS011;32233;49.500;7.764;2022-08-01T02:47:35;2.37;;;2.17;;
7432;SDS011;32233;49.500;7.764;2022-08-01T02:50:02;3.03;;;2.23;;
7432;SDS011;32233;49.500;7.764;2022-08-01T02:52:28;2.97;;;2.23;;
7432;SDS011;32233;49.500;7.764;2022-08-01T02:54:56;2.50;;;2.40;;
7432;SDS011;32233;49.500;7.764;2022-08-01T02:57:24;2.73;;;2.53;;
7432;SDS011;32233;49.500;7.764;2022-08-01T03:00:11;2.93;;;2.63;;
7432;SDS011;32233;49.500;7.764;2022-08-01T03:02:38;2.40;;;2.30;;
7432;SDS011;32233;49.500;7.764;2022-08-01T03:05:05;2.73;;;2.53;;
7432;SDS011;32233;49.500;7.764;2022-08-01T03:07:34;2.47;;;2.37;;
7432;SDS011;32233;49.500;7.764;2022-08-01T03:10:05;2.20;;;2.10;;
7432;SDS011;32233;49.500;7.764;2022-08-01T03:12:33;2.50;;;2.30;;
7432;SDS011;32233;49.500;7.764;2022-08-01T03:14:59;2.30;;;2.20;;
7432;SDS011;32233;49.500;7.764;2022-08-01T03:17:27;2.47;;;2.30;;
7432;SDS011;32233;49.500;7.764;2022-08-01T03:19:54;3.07;;;2.50;;
7432;SDS011;32233;49.500;7.764;2022-08-01T03:22:23;4.10;;;2.57;;
7432;SDS011;32233;49.500;7.764;2022-08-01T03:24:51;3.40;;;2.37;;
7432;SDS011;32233;49.500;7.764;2022-08-01T03:27:19;2.40;;;2.20;;
7432;SDS011;32233;49.500;7.764;2022-08-01T03:29:46;2.63;;;2.43;;
7432;SDS011;32233;49.500;7.764;2022-08-01T03:32:13;2.63;;;2.43;;
7432;SDS011;32233;49.500;7.764;2022-08-01T03:34:40;2.53;;;2.37;;
7432;SDS011;32233;49.500;7.764;2022-08-01T03:37:26;2.27;;;2.07;;
7432;SDS011;32233;49.500;7.764;2022-08-01T03:42:23;4.40;;;2.67;;
7432;SDS011;32233;49.500;7.764;2022-08-01T03:44:54;2.60;;;2.20;;
7432;SDS011;32233;49.500;7.764;2022-08-01T03:47:21;2.30;;;2.10;;
7432;SDS011;32233;49.500;7.764;2022-08-01T03:49:51;2.30;;;2.10;;
7432;SDS011;32233;49.500;7.764;2022-08-01T03:52:18;2.57;;;2.37;;
7432;SDS011;32233;49.500;7.764;2022-08-01T03:54:46;2.07;;;1.87;;
7432;SDS011;32233;49.500;7.764;2022-08-01T03:57:13;2.27;;;2.07;;
7432;SDS011;32233;49.500;7.764;2022-08-01T04:00:00;2.20;;;2.00;;
7432;SDS011;32233;49.500;7.764;2022-08-01T04:02:27;2.40;;;2.20;;
7432;SDS011;32233;49.500;7.764;2022-08-01T04:04:53;2.20;;;2.10;;
7432;SDS011;32233;49.500;7.764;2022-08-01T04:07:32;2.63;;;1.93;;
7432;SDS011;32233;49.500;7.764;2022-08-01T04:09:59;2.47;;;2.30;;
7432;SDS011;32233;49.500;7.764;2022-08-01T04:12:25;2.40;;;2.20;;
7432;SDS011;32233;49.500;7.764;2022-08-01T04:14:51;2.50;;;2.30;;
7432;SDS011;32233;49.500;7.764;2022-08-01T04:17:18;2.53;;;2.30;;
7432;SDS011;32233;49.500;7.764;2022-08-01T04:19:45;2.90;;;2.70;;
7432;SDS011;32233;49.500;7.764;2022-08-01T04:22:13;2.50;;;2.30;;
7432;SDS011;32233;49.500;7.764;2022-08-01T04:24:40;2.83;;;2.40;;
7432;SDS011;32233;49.500;7.764;2022-08-01T04:27:08;2.53;;;2.33;;
7432;SDS011;32233;49.500;7.764;2022-08-01T04:29:36;2.50;;;2.30;;
7432;SDS011;32233;49.500;7.764;2022-08-01T04:32:03;2.67;;;2.20;;
7432;SDS011;32233;49.500;7.764;2022-08-01T04:34:30;2.60;;;2.40;;
7432;SDS011;32233;49.500;7.764;2022-08-01T04:36:58;2.47;;;2.27;;
7432;SDS011;32233;49.500;7.764;2022-08-01T04:39:27;2.40;;;2.30;;
7432;SDS011;32233;49.500;7.764;2022-08-01T04:41:54;3.20;;;2.40;;
7432;SDS011;32233;49.500;7.764;2022-08-01T04:44:23;3.40;;;2.90;;
7432;SDS011;32233;49.500;7.764;2022-08-01T04:46:50;3.70;;;2.03;;
7432;SDS011;32233;49.500;7.764;2022-08-01T04:49:16;2.07;;;1.97;;
7432;SDS011;32233;49.500;7.764;2022-08-01T04:51:52;3.10;;;1.60;;
7432;SDS011;32233;49.500;7.764;2022-08-01T04:54:24;1.90;;;1.80;;
7432;SDS011;32233;49.500;7.764;2022-08-01T04:56:51;2.13;;;1.80;;
7432;SDS011;32233;49.500;7.764;2022-08-01T04:59:19;2.03;;;1.80;;
7432;SDS011;32233;49.500;7.764;2022-08-01T05:02:05;1.50;;;1.40;;
7432;SDS011;32233;49.500;7.764;2022-08-01T05:04:32;2.07;;;1.83;;
7432;SDS011;32233;49.500;7.764;2022-08-01T05:06:58;1.83;;;1.73;;
7432;SDS011;32233;49.500;7.764;2022-08-01T05:09:25;3.20;;;1.87;;
7432;SDS011;32233;49.500;7.764;2022-08-01T05:11:57;2.83;;;1.70;;
7432;SDS011;32233;49.500;7.764;2022-08-01T05:14:25;1.83;;;1.73;;
7432;SDS011;32233;49.500;7.764;2022-08-01T05:16:52;2.70;;;1.80;;
7432;SDS011;32233;49.500;7.764;2022-08-01T05:19:18;2.10;;;1.90;;
7432;SDS011;32233;49.500;7.764;2022-08-01T05:21:45;1.90;;;1.70;;
7432;SDS011;32233;49.500;7.764;2022-08-01T05:24:11;1.77;;;1.67;;
7432;SDS011;32233;49.500;7.764;2022-08-01T05:26:39;3.67;;;1.97;;
7432;SDS011;32233;49.500;7.764;2022-08-01T05:29:05;2.70;;;1.60;;
7432;SDS011;32233;49.500;7.764;2022-08-01T05:31:32;1.50;;;1.40;;
7432;SDS011;32233;49.500;7.764;2022-08-01T05:34:01;1.53;;;1.43;;
7432;SDS011;32233;49.500;7.764;2022-08-01T05:36:27;1.50;;;1.40;;
7432;SDS011;32233;49.500;7.764;2022-08-01T05:38:54;1.70;;;1.60;;
7432;SDS011;32233;49.500;7.764;2022-08-01T05:41:20;1.53;;;1.40;;
7432;SDS011;32233;49.500;7.764;2022-08-01T05:43:47;1.60;;;1.50;;
7432;SDS011;32233;49.500;7.764;2022-08-01T05:46:13;1.30;;;1.20;;
7432;SDS011;32233;49.500;7.764;2022-08-01T05:48:40;2.37;;;1.47;;
7432;SDS011;32233;49.500;7.764;2022-08-01T05:51:06;1.77;;;1.67;;
7432;SDS011;32233;49.500;7.764;2022-08-01T05:53:32;1.90;;;1.80;;
7432;SDS011;32233;49.500;7.764;2022-08-01T05:56:00;2.13;;;1.33;;
7432;SDS011;32233;49.500;7.764;2022-08-01T05:58:27;3.47;;;2.20;;
7432;SDS011;32233;49.500;7.764;2022-08-01T06:00:54;3.23;;;1.87;;
7432;SDS011;32233;49.500;7.764;2022-08-01T06:03:20;2.30;;;1.83;;
7432;SDS011;32233;49.500;7.764;2022-08-01T06:05:47;1.70;;;1.60;;
7432;SDS011;32233;49.500;7.764;2022-08-01T06:08:13;1.90;;;1.43;;
7432;SDS011;32233;49.500;7.764;2022-08-01T06:10:40;2.67;;;1.93;;
7432;SDS011;32233;49.500;7.764;2022-08-01T06:13:06;1.77;;;1.50;;
7432;SDS011;32233;49.500;7.764;2022-08-01T06:15:32;3.03;;;1.70;;
7432;SDS011;32233;49.500;7.764;2022-08-01T06:17:59;1.70;;;1.40;;
7432;SDS011;32233;49.500;7.764;2022-08-01T06:20:25;1.50;;;1.40;;
7432;SDS011;32233;49.500;7.764;2022-08-01T06:22:52;1.60;;;1.50;;
7432;SDS011;32233;49.500;7.764;2022-08-01T06:25:19;2.03;;;1.47;;
7432;SDS011;32233;49.500;7.764;2022-08-01T06:27:46;1.83;;;1.30;;
7432;SDS011;32233;49.500;7.764;2022-08-01T06:30:13;1.40;;;1.30;;
7432;SDS011;32233;49.500;7.764;2022-08-01T06:32:39;3.17;;;1.20;;
7432;SDS011;32233;49.500;7.764;2022-08-01T06:35:06;1.63;;;1.13;;
7432;SDS011;32233;49.500;7.764;2022-08-01T06:37:32;1.20;;;1.10;;
7432;SDS011;32233;49.500;7.764;2022-08-01T06:40:02;1.27;;;1.10;;
7432;SDS011;32233;49.500;7.764;2022-08-01T06:42:29;1.80;;;0.93;;
7432;SDS011;32233;49.500;7.764;2022-08-01T06:44:57;1.10;;;0.70;;
7432;SDS011;32233;49.500;7.764;2022-08-01T06:47:24;0.90;;;0.90;;
7432;SDS011;32233;49.500;7.764;2022-08-01T06:49:50;1.80;;;0.90;;
7432;SDS011;32233;49.500;7.764;2022-08-01T06:52:16;0.80;;;0.70;;
7432;SDS011;32233;49.500;7.764;2022-08-01T06:54:43;0.77;;;0.70;;
7432;SDS011;32233;49.500;7.764;2022-08-01T06:57:09;0.80;;;0.80;;
7432;SDS011;32233;49.500;7.764;2022-08-01T06:59:35;0.93;;;0.93;;
7432;SDS011;32233;49.500;7.764;2022-08-01T07:02:02;1.03;;;0.87;;
7432;SDS011;32233;49.500;7.764;2022-08-01T07:04:29;2.53;;;0.80;;
7432;SDS011;32233;49.500;7.764;2022-08-01T07:06:56;3.47;;;1.00;;
7432;SDS011;32233;49.500;7.764;2022-08-01T07:09:23;1.03;;;0.80;;
7432;SDS011;32233;49.500;7.764;2022-08-01T07:11:49;2.50;;;0.90;;
7432;SDS011;32233;49.500;7.764;2022-08-01T07:14:18;2.20;;;0.80;;
7432;SDS011;32233;49.500;7.764;2022-08-01T07:16:45;0.90;;;0.90;;
7432;SDS011;32233;49.500;7.764;2022-08-01T07:19:11;0.80;;;0.80;;
7432;SDS011;32233;49.500;7.764;2022-08-01T07:21:39;0.93;;;0.87;;
7432;SDS011;32233;49.500;7.764;2022-08-01T07:24:08;2.37;;;1.00;;
7432;SDS011;32233;49.500;7.764;2022-08-01T07:26:43;1.20;;;1.10;;
7432;SDS011;32233;49.500;7.764;2022-08-01T07:29:26;0.80;;;0.80;;
7432;SDS011;32233;49.500;7.764;2022-08-01T07:31:53;2.77;;;0.90;;
7432;SDS011;32233;49.500;7.764;2022-08-01T07:34:20;1.77;;;0.97;;
7432;SDS011;32233;49.500;7.764;2022-08-01T07:36:46;0.90;;;0.90;;
7432;SDS011;32233;49.500;7.764;2022-08-01T07:39:13;0.93;;;0.90;;
7432;SDS011;32233;49.500;7.764;2022-08-01T07:41:39;1.63;;;1.00;;
7432;SDS011;32233;49.500;7.764;2022-08-01T07:44:25;2.00;;;0.90;;
7432;SDS011;32233;49.500;7.764;2022-08-01T07:46:54;1.23;;;0.80;;
7432;SDS011;32233;49.500;7.764;2022-08-01T07:49:20;0.80;;;0.80;;
7432;SDS011;32233;49.500;7.764;2022-08-01T07:51:48;0.80;;;0.80;;
7432;SDS011;32233;49.500;7.764;2022-08-01T07:54:30;1.07;;;0.60;;
7432;SDS011;32233;49.500;7.764;2022-08-01T07:56:59;0.70;;;0.70;;
7432;SDS011;32233;49.500;7.764;2022-08-01T07:59:25;0.80;;;0.80;;
7432;SDS011;32233;49.500;7.764;2022-08-01T08:01:52;0.80;;;0.70;;
7432;SDS011;32233;49.500;7.764;2022-08-01T08:04:18;2.83;;;0.80;;
7432;SDS011;32233;49.500;7.764;2022-08-01T08:06:45;0.70;;;0.70;;
7432;SDS011;32233;49.500;7.764;2022-08-01T08:09:13;0.80;;;0.80;;
7432;SDS011;32233;49.500;7.764;2022-08-01T08:11:41;1.60;;;0.80;;
7432;SDS011;32233;49.500;7.764;2022-08-01T08:14:13;1.63;;;0.77;;
7432;SDS011;32233;49.500;7.764;2022-08-01T08:16:39;0.67;;;0.50;;
7432;SDS011;32233;49.500;7.764;2022-08-01T08:19:05;0.63;;;0.60;;
7432;SDS011;32233;49.500;7.764;2022-08-01T08:21:32;0.80;;;0.80;;
7432;SDS011;32233;49.500;7.764;2022-08-01T08:23:58;3.10;;;0.70;;
7432;SDS011;32233;49.500;7.764;2022-08-01T08:26:43;0.97;;;0.60;;
7432;SDS011;32233;49.500;7.764;2022-08-01T08:29:10;1.63;;;0.60;;
7432;SDS011;32233;49.500;7.764;2022-08-01T08:31:36;0.60;;;0.60;;
7432;SDS011;32233;49.500;7.764;2022-08-01T08:34:17;0.80;;;0.70;;
7432;SDS011;32233;49.500;7.764;2022-08-01T08:36:44;0.93;;;0.63;;
7432;SDS011;32233;49.500;7.764;2022-08-01T08:39:13;0.70;;;0.67;;
7432;SDS011;32233;49.500;7.764;2022-08-01T08:41:39;0.60;;;0.60;;
7432;SDS011;32233;49.500;7.764;2022-08-01T08:44:06;0.90;;;0.90;;
7432;SDS011;32233;49.500;7.764;2022-08-01T08:46:48;0.70;;;0.60;;
7432;SDS011;32233;49.500;7.764;2022-08-01T08:49:16;0.70;;;0.70;;
7432;SDS011;32233;49.500;7.764;2022-08-01T08:51:43;0.67;;;0.60;;
7432;SDS011;32233;49.500;7.764;2022-08-01T08:54:11;1.23;;;0.70;;
7432;SDS011;32233;49.500;7.764;2022-08-01T08:56:39;0.60;;;0.60;;
7432;SDS011;32233;49.500;7.764;2022-08-01T08:59:06;1.73;;;0.60;;
7432;SDS011;32233;49.500;7.764;2022-08-01T09:01:32;0.60;;;0.60;;
7432;SDS011;32233;49.500;7.764;2022-08-01T09:03:59;0.60;;;0.60;;
7432;SDS011;32233;49.500;7.764;2022-08-01T09:06:25;1.57;;;0.60;;
7432;SDS011;32233;49.500;7.764;2022-08-01T09:08:52;0.87;;;0.60;;
7432;SDS011;32233;49.500;7.764;2022-08-01T09:11:20;0.70;;;0.70;;
7432;SDS011;32233;49.500;7.764;2022-08-01T09:17:02;1.33;;;0.60;;
7432;SDS011;32233;49.500;7.764;2022-08-01T09:22:10;0.60;;;0.60;;
7432;SDS011;32233;49.500;7.764;2022-08-01T09:24:36;0.80;;;0.70;;
7432;SDS011;32233;49.500;7.764;2022-08-01T09:27:21;0.70;;;0.70;;
7432;SDS011;32233;49.500;7.764;2022-08-01T09:29:50;0.73;;;0.70;;
7432;SDS011;32233;49.500;7.764;2022-08-01T09:32:30;0.77;;;0.70;;
7432;SDS011;32233;49.500;7.764;2022-08-01T09:38:13;1.20;;;0.70;;
7432;SDS011;32233;49.500;7.764;2022-08-01T09:41:14;1.37;;;0.70;;
7432;SDS011;32233;49.500;7.764;2022-08-01T09:43:33;1.87;;;0.77;;
7432;SDS011;32233;49.500;7.764;2022-08-01T09:46:10;1.53;;;0.70;;
7432;SDS011;32233;49.500;7.764;2022-08-01T09:48:38;0.67;;;0.67;;
7432;SDS011;32233;49.500;7.764;2022-08-01T09:51:14;0.80;;;0.80;;
7432;SDS011;32233;49.500;7.764;2022-08-01T09:54:13;1.07;;;0.63;;
7432;SDS011;32233;49.500;7.764;2022-08-01T09:56:53;0.60;;;0.60;;
7432;SDS011;32233;49.500;7.764;2022-08-01T09:59:19;0.67;;;0.67;;
7432;SDS011;32233;49.500;7.764;2022-08-01T10:01:48;0.80;;;0.80;;
7432;SDS011;32233;49.500;7.764;2022-08-01T10:04:19;2.77;;;0.70;;
7432;SDS011;32233;49.500;7.764;2022-08-01T10:06:46;0.70;;;0.57;;
7432;SDS011;32233;49.500;7.764;2022-08-01T10:09:18;0.40;;;0.40;;
7432;SDS011;32233;49.500;7.764;2022-08-01T10:12:02;1.10;;;0.60;;
7432;SDS011;32233;49.500;7.764;2022-08-01T10:14:29;0.87;;;0.80;;
7432;SDS011;32233;49.500;7.764;2022-08-01T10:16:57;0.50;;;0.50;;
7432;SDS011;32233;49.500;7.764;2022-08-01T10:19:30;0.73;;;0.50;;
7432;SDS011;32233;49.500;7.764;2022-08-01T10:21:58;0.77;;;0.60;;
7432;SDS011;32233;49.500;7.764;2022-08-01T10:24:26;0.50;;;0.50;;
7432;SDS011;32233;49.500;7.764;2022-08-01T10:26:58;0.70;;;0.70;;
7432;SDS011;32233;49.500;7.764;2022-08-01T10:29:47;1.27;;;0.50;;
7432;SDS011;32233;49.500;7.764;2022-08-01T10:32:34;1.80;;;0.50;;
7432;SDS011;32233;49.500;7.764;2022-08-01T10:35:05;1.50;;;0.50;;
7432;SDS011;32233;49.500;7.764;2022-08-01T10:37:40;0.80;;;0.60;;
7432;SDS011;32233;49.500;7.764;2022-08-01T10:40:18;2.00;;;0.60;;
7432;SDS011;32233;49.500;7.764;2022-08-01T10:42:55;0.70;;;0.60;;
7432;SDS011;32233;49.500;7.764;2022-08-01T10:45:22;1.23;;;0.60;;
7432;SDS011;32233;49.500;7.764;2022-08-01T10:47:51;1.27;;;0.60;;
7432;SDS011;32233;49.500;7.764;2022-08-01T10:50:21;0.93;;;0.80;;
7432;SDS011;32233;49.500;7.764;2022-08-01T10:53:05;2.20;;;0.70;;
7432;SDS011;32233;49.500;7.764;2022-08-01T10:56:00;1.00;;;0.60;;
7432;SDS011;32233;49.500;7.764;2022-08-01T10:58:32;1.37;;;0.60;;
7432;SDS011;32233;49.500;7.764;2022-08-01T11:01:15;3.00;;;0.70;;
7432;SDS011;32233;49.500;7.764;2022-08-01T11:03:43;2.10;;;0.70;;
7432;SDS011;32233;49.500;7.764;2022-08-01T11:14:26;3.17;;;1.00;;
7432;SDS011;32233;49.500;7.764;2022-08-01T11:20:54;1.80;;;0.90;;
7432;SDS011;32233;49.500;7.764;2022-08-01T11:28:21;1.50;;;1.10;;
7432;SDS011;32233;49.500;7.764;2022-08-01T11:38:41;1.43;;;1.20;;
7432;SDS011;32233;49.500;7.764;2022-08-01T11:41:42;2.87;;;1.20;;
7432;SDS011;32233;49.500;7.764;2022-08-01T11:44:11;1.23;;;1.13;;
7432;SDS011;32233;49.500;7.764;2022-08-01T11:46:52;1.77;;;1.10;;
7432;SDS011;32233;49.500;7.764;2022-08-01T11:54:34;2.10;;;1.00;;
7432;SDS011;32233;49.500;7.764;2022-08-01T11:57:09;0.83;;;0.83;;
7432;SDS011;32233;49.500;7.764;2022-08-01T11:59:37;0.70;;;0.70;;
7432;SDS011;32233;49.500;7.764;2022-08-01T12:02:16;0.90;;;0.90;;
7432;SDS011;32233;49.500;7.764;2022-08-01T12:05:00;0.90;;;0.90;;
7432;SDS011;32233;49.500;7.764;2022-08-01T12:07:28;1.13;;;1.13;;
7432;SDS011;32233;49.500;7.764;2022-08-01T12:09:58;0.90;;;0.90;;
7432;SDS011;32233;49.500;7.764;2022-08-01T12:12:27;2.33;;;0.93;;
7432;SDS011;32233;49.500;7.764;2022-08-01T12:14:54;1.20;;;1.20;;
7432;SDS011;32233;49.500;7.764;2022-08-01T12:17:28;1.75;;;1.00;;
7432;SDS011;32233;49.500;7.764;2022-08-01T12:19:54;1.00;;;1.00;;
7432;SDS011;32233;49.500;7.764;2022-08-01T12:22:21;1.43;;;1.20;;
7432;SDS011;32233;49.500;7.764;2022-08-01T12:24:48;1.13;;;1.00;;
7432;SDS011;32233;49.500;7.764;2022-08-01T12:27:27;0.83;;;0.83;;
7432;SDS011;32233;49.500;7.764;2022-08-01T12:29:54;0.93;;;0.90;;
7432;SDS011;32233;49.500;7.764;2022-08-01T12:35:00;1.93;;;0.87;;
7432;SDS011;32233;49.500;7.764;2022-08-01T12:37:27;0.83;;;0.83;;
7432;SDS011;32233;49.500;7.764;2022-08-01T12:39:53;0.80;;;0.80;;
7432;SDS011;32233;49.500;7.764;2022-08-01T12:42:20;1.67;;;0.90;;
7432;SDS011;32233;49.500;7.764;2022-08-01T12:44:48;0.80;;;0.80;;
7432;SDS011;32233;49.500;7.764;2022-08-01T12:47:15;0.80;;;0.80;;
7432;SDS011;32233;49.500;7.764;2022-08-01T12:49:42;1.00;;;1.00;;
7432;SDS011;32233;49.500;7.764;2022-08-01T12:52:09;0.70;;;0.70;;
7432;SDS011;32233;49.500;7.764;2022-08-01T12:57:23;3.50;;;0.60;;
7432;SDS011;32233;49.500;7.764;2022-08-01T12:59:52;0.80;;;0.80;;
7432;SDS011;32233;49.500;7.764;2022-08-01T13:02:19;0.82;;;0.82;;
7432;SDS011;32233;49.500;7.764;2022-08-01T13:04:49;1.48;;;0.90;;
7432;SDS011;32233;49.500;7.764;2022-08-01T13:07:16;0.60;;;0.60;;
7432;SDS011;32233;49.500;7.764;2022-08-01T13:09:49;1.27;;;0.60;;
7432;SDS011;32233;49.500;7.764;2022-08-01T13:12:16;2.30;;;0.47;;
7432;SDS011;32233;49.500;7.764;2022-08-01T13:14:42;1.33;;;0.50;;
7432;SDS011;32233;49.500;7.764;2022-08-01T13:17:09;1.17;;;0.50;;
7432;SDS011;32233;49.500;7.764;2022-08-01T13:19:41;2.30;;;0.70;;
7432;SDS011;32233;49.500;7.764;2022-08-01T13:22:07;1.25;;;0.60;;
7432;SDS011;32233;49.500;7.764;2022-08-01T13:24:34;1.75;;;0.50;;
7432;SDS011;32233;49.500;7.764;2022-08-01T13:27:01;0.60;;;0.50;;
7432;SDS011;32233;49.500;7.764;2022-08-01T13:32:01;0.60;;;0.50;;
7432;SDS011;32233;49.500;7.764;2022-08-01T13:35:00;0.60;;;0.60;;
7432;SDS011;32233;49.500;7.764;2022-08-01T13:37:26;1.00;;;0.40;;
7432;SDS011;32233;49.500;7.764;2022-08-01T13:39:53;0.70;;;0.40;;
7432;SDS011;32233;49.500;7.764;2022-08-01T13:42:19;1.47;;;0.50;;
7432;SDS011;32233;49.500;7.764;2022-08-01T13:44:47;0.40;;;0.40;;
7432;SDS011;32233;49.500;7.764;2022-08-01T13:47:13;0.43;;;0.43;;
7432;SDS011;32233;49.500;7.764;2022-08-01T13:49:42;0.87;;;0.50;;
7432;SDS011;32233;49.500;7.764;2022-08-01T13:52:08;2.33;;;0.50;;
7432;SDS011;32233;49.500;7.764;2022-08-01T13:54:35;2.10;;;0.50;;
7432;SDS011;32233;49.500;7.764;2022-08-01T13:57:02;1.87;;;0.40;;
7432;SDS011;32233;49.500;7.764;2022-08-01T13:59:29;2.10;;;0.60;;
7432;SDS011;32233;49.500;7.764;2022-08-01T14:01:55;0.70;;;0.40;;
7432;SDS011;32233;49.500;7.764;2022-08-01T14:04:21;0.50;;;0.50;;
7432;SDS011;32233;49.500;7.764;2022-08-01T14:06:48;0.50;;;0.50;;
7432;SDS011;32233;49.500;7.764;2022-08-01T14:09:14;0.77;;;0.57;;
7432;SDS011;32233;49.500;7.764;2022-08-01T14:11:49;0.50;;;0.50;;
7432;SDS011;32233;49.500;7.764;2022-08-01T14:14:16;0.40;;;0.40;;
7432;SDS011;32233;49.500;7.764;2022-08-01T14:16:42;1.07;;;0.53;;
7432;SDS011;32233;49.500;7.764;2022-08-01T14:19:11;3.27;;;0.53;;
7432;SDS011;32233;49.500;7.764;2022-08-01T14:21:37;1.13;;;0.60;;
7432;SDS011;32233;49.500;7.764;2022-08-01T14:24:03;0.90;;;0.50;;
7432;SDS011;32233;49.500;7.764;2022-08-01T14:26:30;0.97;;;0.60;;
7432;SDS011;32233;49.500;7.764;2022-08-01T14:28:56;0.60;;;0.50;;
7432;SDS011;32233;49.500;7.764;2022-08-01T14:31:23;0.87;;;0.50;;
7432;SDS011;32233;49.500;7.764;2022-08-01T14:33:49;1.23;;;0.57;;
7432;SDS011;32233;49.500;7.764;2022-08-01T14:36:15;1.80;;;0.50;;
7432;SDS011;32233;49.500;7.764;2022-08-01T14:38:56;0.60;;;0.60;;
7432;SDS011;32233;49.500;7.764;2022-08-01T14:41:26;3.37;;;0.70;;
7432;SDS011;32233;49.500;7.764;2022-08-01T14:43:53;1.70;;;0.70;;
7432;SDS011;32233;49.500;7.764;2022-08-01T14:46:19;0.63;;;0.63;;
7432;SDS011;32233;49.500;7.764;2022-08-01T14:48:45;1.80;;;0.50;;
7432;SDS011;32233;49.500;7.764;2022-08-01T14:51:12;0.63;;;0.50;;
7432;SDS011;32233;49.500;7.764;2022-08-01T14:53:38;1.17;;;0.57;;
7432;SDS011;32233;49.500;7.764;2022-08-01T14:56:08;0.70;;;0.50;;
7432;SDS011;32233;49.500;7.764;2022-08-01T14:58:34;0.93;;;0.50;;
7432;SDS011;32233;49.500;7.764;2022-08-01T15:01:01;1.20;;;0.40;;
7432;SDS011;32233;49.500;7.764;2022-08-01T15:03:27;0.53;;;0.40;;
7432;SDS011;32233;49.500;7.764;2022-08-01T15:05:53;0.50;;;0.50;;
7432;SDS011;32233;49.500;7.764;2022-08-01T15:08:20;2.73;;;0.50;;
7432;SDS011;32233;49.500;7.764;2022-08-01T15:10:46;1.17;;;0.40;;
7432;SDS011;32233;49.500;7.764;2022-08-01T15:13:12;0.93;;;0.40;;
7432;SDS011;32233;49.500;7.764;2022-08-01T15:15:39;1.00;;;0.40;;
7432;SDS011;32233;49.500;7.764;2022-08-01T15:18:05;0.90;;;0.50;;
7432;SDS011;32233;49.500;7.764;2022-08-01T15:20:31;0.87;;;0.60;;
7432;SDS011;32233;49.500;7.764;2022-08-01T15:22:59;0.67;;;0.40;;
7432;SDS011;32233;49.500;7.764;2022-08-01T15:25:25;0.50;;;0.40;;
7432;SDS011;32233;49.500;7.764;2022-08-01T15:28:07;1.53;;;0.60;;
7432;SDS011;32233;49.500;7.764;2022-08-01T15:30:34;0.97;;;0.50;;
7432;SDS011;32233;49.500;7.764;2022-08-01T15:33:00;2.93;;;0.53;;
7432;SDS011;32233;49.500;7.764;2022-08-01T15:35:27;3.23;;;0.53;;
7432;SDS011;32233;49.500;7.764;2022-08-01T15:37:53;1.23;;;0.40;;
7432;SDS011;32233;49.500;7.764;2022-08-01T15:40:20;1.67;;;0.60;;
7432;SDS011;32233;49.500;7.764;2022-08-01T15:42:46;2.60;;;0.50;;
7432;SDS011;32233;49.500;7.764;2022-08-01T15:45:12;1.07;;;0.40;;
7432;SDS011;32233;49.500;7.764;2022-08-01T15:48:02;0.70;;;0.50;;
7432;SDS011;32233;49.500;7.764;2022-08-01T15:50:28;0.53;;;0.33;;
7432;SDS011;32233;49.500;7.764;2022-08-01T15:52:55;0.80;;;0.60;;
7432;SDS011;32233;49.500;7.764;2022-08-01T15:55:21;1.27;;;0.43;;
7432;SDS011;32233;49.500;7.764;2022-08-01T15:57:48;0.50;;;0.50;;
7432;SDS011;32233;49.500;7.764;2022-08-01T16:00:14;0.97;;;0.40;;
7432;SDS011;32233;49.500;7.764;2022-08-01T16:02:41;0.43;;;0.40;;
7432;SDS011;32233;49.500;7.764;2022-08-01T16:05:07;0.87;;;0.60;;
7432;SDS011;32233;49.500;7.764;2022-08-01T16:07:34;0.80;;;0.50;;
7432;SDS011;32233;49.500;7.764;2022-08-01T16:10:21;1.83;;;0.40;;
7432;SDS011;32233;49.500;7.764;2022-08-01T16:12:48;0.63;;;0.50;;
7432;SDS011;32233;49.500;7.764;2022-08-01T16:15:14;1.90;;;0.40;;